Tinsdal — V2AJ2 — position and weather

sailwx.info

Track history (hours):
 
Tides and Currents Weather Stations Pressure Air Temp Water Temp Dewpoint Dewpoint Depression Visibility Wind Speed Wind Dir Waves Ship Positions

Tinsdal

Last reported at 2016-Feb-03 14:30 UTC. Time now 2016-Feb-06 11:31 UTC.
Position N 35°35' E 014°29'.

Length 90 m; draft 4 m.

Type: Cargo ship. MMSI: 305573000.

Date/timePositionNaut miles runAvg speedWind from/ knotsBaromVisibWave heightAir tempDewpointWater temp
2016-Feb-03 14:30N 35°35' E 014°29'  
2016-Jan-27 22:25N 39°57' E 001°00'910.7
2016-Jan-27 21:33N 40°04' E 001°08'1010.3
2016-Jan-27 20:33N 40°12' E 001°17'1110.8
2016-Jan-27 19:33N 40°21' E 001°24'1111.2
2016-Jan-27 18:33N 40°30' E 001°32'1111.1
2016-Jan-27 17:33N 40°40' E 001°40'1411.3
2016-Jan-27 16:18N 40°52' E 001°50'3011.0
2016-Jan-27 13:32N 41°18' E 002°10'  
2016-Jan-24 21:25N 41°14' E 002°18'910.7
2016-Jan-24 20:33N 41°09' E 002°29'1110.8
2016-Jan-24 19:33N 41°06' E 002°43'2110.3
2016-Jan-24 17:32N 40°56' E 003°07'1010.6
2016-Jan-24 16:33N 40°50' E 003°18'1110.7
2016-Jan-24 15:32N 40°45' E 003°31'  
Track history (hours):
 
Tides and Currents Weather Stations Pressure Air Temp Water Temp Dewpoint Dewpoint Depression Visibility Wind Speed Wind Dir Waves Ship Positions

Tinsdal

Last reported at 2016-Feb-03 14:30 UTC. Time now 2016-Feb-06 11:31 UTC.
Position N 35°35' E 014°29'.

Length 90 m; draft 4 m.

Type: Cargo ship. MMSI: 305573000.

Date/timePositionNaut miles runAvg speedWind from/ knotsBaromVisibWave heightAir tempDewpointWater temp
2016-Feb-03 14:30N 35°35' E 014°29'  
2016-Jan-27 22:25N 39°57' E 001°00'910.7
2016-Jan-27 21:33N 40°04' E 001°08'1010.3
2016-Jan-27 20:33N 40°12' E 001°17'1110.8
2016-Jan-27 19:33N 40°21' E 001°24'1111.2
2016-Jan-27 18:33N 40°30' E 001°32'1111.1
2016-Jan-27 17:33N 40°40' E 001°40'1411.3
2016-Jan-27 16:18N 40°52' E 001°50'3011.0
2016-Jan-27 13:32N 41°18' E 002°10'  
2016-Jan-24 21:25N 41°14' E 002°18'910.7
2016-Jan-24 20:33N 41°09' E 002°29'1110.8
2016-Jan-24 19:33N 41°06' E 002°43'2110.3
2016-Jan-24 17:32N 40°56' E 003°07'1010.6
2016-Jan-24 16:33N 40°50' E 003°18'1110.7
2016-Jan-24 15:32N 40°45' E 003°31'  

Dump ship's entire track history